»·PEaware :: UAL1928 KLAX-KPHX

UAL1928 :: KLAX-KPHX

FLIGHT INFORMATION

Flight Status: Arrived
Operator:
United Airlines
More flights by this operator :: More flights under this callsign
Pilot: Chris C. (10181)
Aircraft: BOEING 737-200
(B732)
More flights by this aircraft type
Origin: KLAX Los Angeles Intl
United States
Destination: KPHX Phoenix Sky Harbor Intl
United States
More flights between these airports :: More routes between these airports
Route: +LAXX1 TRM BLH BLH5
File this flight plan on PilotEdge
Remarks:
Altitude:
(Current/Filed)
26,000ft
Speed:
(Current/Filed)
475kts
Departed: 13-Oct-19 03:14 PM
Arrived: 13-Oct-19 04:12 PM
Distance/Time
Traveled:
321nm/0:58
Distance/Time
To Go:
Arrived

Flight Plot

Page will automatically refresh every two minutes.

Flight plan parsing failed; only flown route is shown


Map Options




Map Legend


Flown Route
Filed Route
Departure Airport
Arrival Airport
Navaid (VOR, NDB)
Fix

Horizontal Profiles

Position Reports

Time Latitude Longitude Heading Altitude Ground
Speed
13-Oct-19 14:24 33.941127 -118.399109 305 117ft 0kts
13-Oct-19 14:25 33.941127 -118.399109 305 117ft 0kts
13-Oct-19 14:26 33.941127 -118.399109 305 117ft 0kts
13-Oct-19 14:27 33.941127 -118.399109 305 117ft 0kts
13-Oct-19 14:28 33.941127 -118.399109 305 117ft 0kts
13-Oct-19 14:29 33.941127 -118.399109 305 117ft 0kts
13-Oct-19 14:30 33.941127 -118.399109 305 117ft 0kts
13-Oct-19 14:31 33.941127 -118.399109 305 117ft 0kts
13-Oct-19 14:32 33.941127 -118.399109 305 117ft 0kts
13-Oct-19 14:33 33.941127 -118.399109 305 117ft 0kts
13-Oct-19 14:34 33.941127 -118.399109 305 117ft 0kts
13-Oct-19 14:35 33.941127 -118.399109 305 117ft 0kts
13-Oct-19 14:36 33.941127 -118.399109 305 117ft 0kts
13-Oct-19 14:37 33.941127 -118.399109 305 117ft 0kts
13-Oct-19 14:38 33.941127 -118.399109 305 117ft 0kts
13-Oct-19 14:39 33.941127 -118.399109 305 117ft 0kts
13-Oct-19 14:40 33.941127 -118.399109 305 117ft 0kts
13-Oct-19 14:41 33.941127 -118.399109 305 117ft 0kts
13-Oct-19 14:42 33.941127 -118.399109 305 117ft 0kts
13-Oct-19 14:43 33.941127 -118.399109 305 117ft 0kts
13-Oct-19 14:44 33.941127 -118.399109 305 117ft 0kts
13-Oct-19 14:45 33.941127 -118.399109 305 117ft 0kts
13-Oct-19 14:46 33.941127 -118.399109 305 117ft 0kts
13-Oct-19 14:47 33.941127 -118.399109 305 117ft 0kts
13-Oct-19 14:48 33.941127 -118.399109 305 117ft 0kts
13-Oct-19 14:49 33.941127 -118.399109 305 117ft 0kts
13-Oct-19 14:50 33.941127 -118.399109 305 117ft 0kts
13-Oct-19 14:51 33.941127 -118.399109 305 117ft 0kts
13-Oct-19 14:52 33.941127 -118.399109 305 117ft 0kts
13-Oct-19 14:53 33.941127 -118.399109 305 117ft 0kts
13-Oct-19 14:54 33.941127 -118.399109 305 117ft 0kts
13-Oct-19 14:55 33.941127 -118.399109 305 117ft 0kts
13-Oct-19 14:56 33.941127 -118.399109 305 117ft 0kts
13-Oct-19 14:57 33.941127 -118.399109 305 117ft 0kts
13-Oct-19 14:58 33.941127 -118.399109 305 117ft 0kts
13-Oct-19 14:59 33.941127 -118.399109 305 117ft 0kts
13-Oct-19 15:00 33.941016 -118.398761 263 117ft 2kts
13-Oct-19 15:01 33.941451 -118.398391 167 116ft 2kts
13-Oct-19 15:02 33.941657 -118.398427 173 116ft 0kts
13-Oct-19 15:03 33.941657 -118.398427 173 116ft 0kts
13-Oct-19 15:04 33.941657 -118.398427 173 116ft 0kts
13-Oct-19 15:05 33.941657 -118.398427 173 116ft 0kts
13-Oct-19 15:06 33.941657 -118.398427 173 116ft 0kts
13-Oct-19 15:07 33.940472 -118.398271 174 116ft 11kts
13-Oct-19 15:08 33.939434 -118.393492 81 110ft 23kts
13-Oct-19 15:09 33.940321 -118.385335 80 105ft 25kts
13-Oct-19 15:10 33.940716 -118.380653 115 103ft 0kts
13-Oct-19 15:11 33.940716 -118.380653 115 103ft 0kts
13-Oct-19 15:12 33.940104 -118.379924 173 102ft 10kts
13-Oct-19 15:13 33.938813 -118.389937 262 107ft 122kts
13-Oct-19 15:14 33.935388 -118.448527 266 1976ft 213kts
13-Oct-19 15:15 33.906247 -118.516290 235 4491ft 263kts
13-Oct-19 15:16 33.862408 -118.587677 234 7299ft 283kts
13-Oct-19 15:17 33.798837 -118.633988 163 10109ft 288kts
13-Oct-19 15:18 33.743260 -118.555309 123 11674ft 329kts
13-Oct-19 15:19 33.691360 -118.462534 122 13612ft 349kts
13-Oct-19 15:20 33.638948 -118.361994 121 15633ft 357kts
13-Oct-19 15:21 33.586874 -118.254962 120 16829ft 382kts
13-Oct-19 15:22 33.527031 -118.143352 121 17004ft 409kts
13-Oct-19 15:23 33.520046 -118.010219 83 17015ft 422kts
13-Oct-19 15:24 33.527584 -117.874444 84 18811ft 400kts
13-Oct-19 15:25 33.538737 -117.740059 82 19968ft 412kts
13-Oct-19 15:26 33.551774 -117.600562 82 20907ft 425kts
13-Oct-19 15:27 33.566993 -117.459034 82 21973ft 432kts
13-Oct-19 15:28 33.582677 -117.314895 82 22915ft 438kts
13-Oct-19 15:29 33.591571 -117.167511 86 23675ft 445kts
13-Oct-19 15:30 33.599199 -117.017948 86 24358ft 451kts
13-Oct-19 15:31 33.605116 -116.866903 88 24927ft 457kts
13-Oct-19 15:32 33.608065 -116.711107 89 24958ft 472kts
13-Oct-19 15:33 33.610752 -116.551462 87 24942ft 485kts
13-Oct-19 15:34 33.618710 -116.390149 85 24911ft 482kts
13-Oct-19 15:35 33.623488 -116.228618 88 24900ft 485kts
13-Oct-19 15:36 33.640010 -116.064570 89 24910ft 498kts
13-Oct-19 15:37 33.646578 -115.898163 95 24907ft 500kts
13-Oct-19 15:38 33.632937 -115.731289 97 24918ft 501kts
13-Oct-19 15:39 33.617842 -115.567039 89 24905ft 490kts
13-Oct-19 15:40 33.619531 -115.404898 88 24910ft 481kts
13-Oct-19 15:41 33.618889 -115.246225 91 24944ft 474kts
13-Oct-19 15:42 33.612183 -115.088687 95 24954ft 470kts
13-Oct-19 15:43 33.599312 -114.933266 92 24953ft 467kts
13-Oct-19 15:44 33.597901 -114.777459 89 24953ft 465kts
13-Oct-19 15:45 33.592074 -114.622980 98 24954ft 463kts
13-Oct-19 15:46 33.571949 -114.470134 97 24954ft 462kts
13-Oct-19 15:47 33.554565 -114.319122 98 24954ft 461kts
13-Oct-19 15:48 33.540611 -114.185876 93 24952ft 460kts
13-Oct-19 15:49 33.532339 -114.032041 92 24945ft 464kts
13-Oct-19 15:50 33.521569 -113.876200 101 24952ft 470kts
13-Oct-19 15:52 33.468545 -113.734282 115 24723ft 455kts
13-Oct-19 15:53 33.411971 -113.602258 120 22309ft 439kts
13-Oct-19 15:54 33.348943 -113.480413 123 19809ft 423kts
13-Oct-19 15:55 33.287292 -113.370671 122 18206ft 384kts
13-Oct-19 15:56 33.249289 -113.255069 86 15958ft 376kts
13-Oct-19 15:57 33.264656 -113.133355 79 13968ft 364kts
13-Oct-19 15:58 33.281596 -113.019494 81 12603ft 341kts
13-Oct-19 15:59 33.293756 -112.912199 82 12003ft 303kts
13-Oct-19 16:00 33.300669 -112.812674 87 12017ft 298kts
13-Oct-19 16:01 33.302802 -112.712775 73 12016ft 304kts
13-Oct-19 16:02 33.346547 -112.625043 59 12019ft 310kts
13-Oct-19 16:03 33.388778 -112.537227 59 11336ft 298kts
13-Oct-19 16:04 33.428006 -112.454095 69 10239ft 268kts
13-Oct-19 16:05 33.422926 -112.369975 94 8437ft 231kts
13-Oct-19 16:06 33.419992 -112.305048 88 7087ft 173kts
13-Oct-19 16:07 33.422274 -112.250230 84 5886ft 165kts
13-Oct-19 16:08 33.426184 -112.195138 86 4510ft 168kts
13-Oct-19 16:09 33.428833 -112.140647 87 3452ft 155kts
13-Oct-19 16:10 33.428753 -112.089026 89 2364ft 151kts
13-Oct-19 16:10 33.428920 -112.047583 90 1514ft 145kts
13-Oct-19 16:12 33.429354 -112.010860 40 1126ft 16kts
13-Oct-19 16:13 33.429939 -112.009447 79 1127ft 9kts
13-Oct-19 16:13 33.431966 -112.008978 357 1128ft 1kts
13-Oct-19 16:14 33.433517 -112.008215 320 1129ft 3kts
13-Oct-19 16:15 33.433544 -112.008241 320 1129ft 0kts

Navigation Log

Ident Type
Flight plan parsing failed, navigation log unavailable